sensor_id;sensor_type;location;lat;lon;timestamp;P1;durP1;ratioP1;P2;durP2;ratioP2
68247;SDS011;55064;49.636;12.164;2023-07-22T00:00:52;6.80;;;3.30;;
68247;SDS011;55064;49.636;12.164;2023-07-22T00:03:17;7.05;;;3.35;;
68247;SDS011;55064;49.636;12.164;2023-07-22T00:05:45;8.13;;;3.93;;
68247;SDS011;55064;49.636;12.164;2023-07-22T00:08:11;8.70;;;4.45;;
68247;SDS011;55064;49.636;12.164;2023-07-22T00:10:40;8.00;;;4.43;;
68247;SDS011;55064;49.636;12.164;2023-07-22T00:13:06;7.78;;;3.67;;
68247;SDS011;55064;49.636;12.164;2023-07-22T00:15:32;8.98;;;4.45;;
68247;SDS011;55064;49.636;12.164;2023-07-22T00:17:57;8.67;;;4.30;;
68247;SDS011;55064;49.636;12.164;2023-07-22T00:20:23;7.77;;;4.20;;
68247;SDS011;55064;49.636;12.164;2023-07-22T00:23:05;10.02;;;4.40;;
68247;SDS011;55064;49.636;12.164;2023-07-22T00:25:30;9.02;;;4.78;;
68247;SDS011;55064;49.636;12.164;2023-07-22T00:28:07;9.40;;;4.47;;
68247;SDS011;55064;49.636;12.164;2023-07-22T00:33:55;7.63;;;3.53;;
68247;SDS011;55064;49.636;12.164;2023-07-22T00:49:08;7.30;;;3.90;;
68247;SDS011;55064;49.636;12.164;2023-07-22T01:13:44;9.38;;;4.65;;
68247;SDS011;55064;49.636;12.164;2023-07-22T01:16:28;9.33;;;4.70;;
68247;SDS011;55064;49.636;12.164;2023-07-22T01:18:57;9.73;;;4.60;;
68247;SDS011;55064;49.636;12.164;2023-07-22T01:24:30;12.30;;;5.15;;
68247;SDS011;55064;49.636;12.164;2023-07-22T01:33:13;9.15;;;4.85;;
68247;SDS011;55064;49.636;12.164;2023-07-22T01:39:00;10.32;;;4.68;;
68247;SDS011;55064;49.636;12.164;2023-07-22T01:58:03;9.23;;;4.40;;
68247;SDS011;55064;49.636;12.164;2023-07-22T02:06:54;8.10;;;3.60;;
68247;SDS011;55064;49.636;12.164;2023-07-22T02:09:20;8.57;;;4.27;;
68247;SDS011;55064;49.636;12.164;2023-07-22T02:27:51;9.75;;;4.68;;
68247;SDS011;55064;49.636;12.164;2023-07-22T02:37:00;9.10;;;4.35;;
68247;SDS011;55064;49.636;12.164;2023-07-22T02:42:47;11.75;;;5.47;;
68247;SDS011;55064;49.636;12.164;2023-07-22T02:54:11;8.87;;;4.60;;
68247;SDS011;55064;49.636;12.164;2023-07-22T03:00:03;9.25;;;4.47;;
68247;SDS011;55064;49.636;12.164;2023-07-22T03:08:52;8.60;;;4.90;;
68247;SDS011;55064;49.636;12.164;2023-07-22T03:14:39;10.82;;;4.97;;
68247;SDS011;55064;49.636;12.164;2023-07-22T03:24:04;8.50;;;3.87;;
68247;SDS011;55064;49.636;12.164;2023-07-22T03:26:39;7.97;;;4.10;;
68247;SDS011;55064;49.636;12.164;2023-07-22T03:35:47;8.18;;;4.03;;
68247;SDS011;55064;49.636;12.164;2023-07-22T03:41:35;8.20;;;4.18;;
68247;SDS011;55064;49.636;12.164;2023-07-22T03:50:33;8.53;;;4.13;;
68247;SDS011;55064;49.636;12.164;2023-07-22T04:22:23;9.90;;;5.13;;
68247;SDS011;55064;49.636;12.164;2023-07-22T04:31:13;9.18;;;4.55;;
68247;SDS011;55064;49.636;12.164;2023-07-22T04:40:24;7.63;;;4.07;;
68247;SDS011;55064;49.636;12.164;2023-07-22T04:58:08;9.43;;;4.20;;
68247;SDS011;55064;49.636;12.164;2023-07-22T05:04:05;11.07;;;5.00;;
68247;SDS011;55064;49.636;12.164;2023-07-22T05:16:36;9.55;;;4.63;;
68247;SDS011;55064;49.636;12.164;2023-07-22T05:22:23;8.50;;;4.57;;
68247;SDS011;55064;49.636;12.164;2023-07-22T05:28:19;9.35;;;4.40;;
68247;SDS011;55064;49.636;12.164;2023-07-22T05:34:15;9.48;;;4.65;;
68247;SDS011;55064;49.636;12.164;2023-07-22T05:40:11;9.30;;;4.47;;
68247;SDS011;55064;49.636;12.164;2023-07-22T05:59:00;9.10;;;4.55;;
68247;SDS011;55064;49.636;12.164;2023-07-22T06:14:22;10.40;;;3.83;;
68247;SDS011;55064;49.636;12.164;2023-07-22T06:20:11;8.10;;;3.65;;
68247;SDS011;55064;49.636;12.164;2023-07-22T06:29:13;9.48;;;4.45;;
68247;SDS011;55064;49.636;12.164;2023-07-22T06:34:25;12.05;;;4.95;;
68247;SDS011;55064;49.636;12.164;2023-07-22T06:46:30;10.82;;;5.35;;
68247;SDS011;55064;49.636;12.164;2023-07-22T06:48:55;9.52;;;4.88;;
68247;SDS011;55064;49.636;12.164;2023-07-22T06:51:23;9.43;;;5.13;;
68247;SDS011;55064;49.636;12.164;2023-07-22T06:53:49;11.48;;;5.00;;
68247;SDS011;55064;49.636;12.164;2023-07-22T06:56:14;9.63;;;5.17;;
68247;SDS011;55064;49.636;12.164;2023-07-22T06:58:40;10.20;;;5.63;;
68247;SDS011;55064;49.636;12.164;2023-07-22T07:01:05;10.70;;;5.50;;
68247;SDS011;55064;49.636;12.164;2023-07-22T07:03:30;10.33;;;5.17;;
68247;SDS011;55064;49.636;12.164;2023-07-22T07:05:56;11.63;;;5.40;;
68247;SDS011;55064;49.636;12.164;2023-07-22T07:08:22;11.80;;;5.03;;
68247;SDS011;55064;49.636;12.164;2023-07-22T07:10:48;10.38;;;4.95;;
68247;SDS011;55064;49.636;12.164;2023-07-22T07:13:14;8.70;;;4.40;;
68247;SDS011;55064;49.636;12.164;2023-07-22T07:15:39;10.53;;;4.47;;
68247;SDS011;55064;49.636;12.164;2023-07-22T07:18:05;9.13;;;4.63;;
68247;SDS011;55064;49.636;12.164;2023-07-22T07:23:24;10.48;;;5.30;;
68247;SDS011;55064;49.636;12.164;2023-07-22T07:25:49;10.30;;;4.50;;
68247;SDS011;55064;49.636;12.164;2023-07-22T07:28:15;8.83;;;4.30;;
68247;SDS011;55064;49.636;12.164;2023-07-22T07:30:45;8.93;;;4.40;;
68247;SDS011;55064;49.636;12.164;2023-07-22T07:33:11;9.07;;;4.00;;
68247;SDS011;55064;49.636;12.164;2023-07-22T07:35:36;9.07;;;4.73;;
68247;SDS011;55064;49.636;12.164;2023-07-22T07:38:02;7.75;;;4.10;;
68247;SDS011;55064;49.636;12.164;2023-07-22T07:40:28;9.30;;;4.20;;
68247;SDS011;55064;49.636;12.164;2023-07-22T07:42:53;8.02;;;4.15;;
68247;SDS011;55064;49.636;12.164;2023-07-22T07:45:20;10.40;;;3.90;;
68247;SDS011;55064;49.636;12.164;2023-07-22T07:47:45;8.82;;;4.38;;
68247;SDS011;55064;49.636;12.164;2023-07-22T07:50:11;9.10;;;4.07;;
68247;SDS011;55064;49.636;12.164;2023-07-22T07:52:37;9.40;;;4.00;;
68247;SDS011;55064;49.636;12.164;2023-07-22T07:55:04;7.05;;;3.65;;
68247;SDS011;55064;49.636;12.164;2023-07-22T07:57:30;6.85;;;3.65;;
68247;SDS011;55064;49.636;12.164;2023-07-22T07:59:55;7.47;;;3.67;;
68247;SDS011;55064;49.636;12.164;2023-07-22T08:02:23;6.85;;;3.47;;
68247;SDS011;55064;49.636;12.164;2023-07-22T08:04:48;7.80;;;3.80;;
68247;SDS011;55064;49.636;12.164;2023-07-22T08:07:15;9.73;;;3.73;;
68247;SDS011;55064;49.636;12.164;2023-07-22T08:09:41;9.55;;;3.60;;
68247;SDS011;55064;49.636;12.164;2023-07-22T08:12:09;11.90;;;3.80;;
68247;SDS011;55064;49.636;12.164;2023-07-22T08:14:36;9.73;;;3.70;;
68247;SDS011;55064;49.636;12.164;2023-07-22T08:17:02;7.33;;;3.17;;
68247;SDS011;55064;49.636;12.164;2023-07-22T08:19:28;7.32;;;3.70;;
68247;SDS011;55064;49.636;12.164;2023-07-22T08:21:56;8.05;;;3.85;;
68247;SDS011;55064;49.636;12.164;2023-07-22T08:24:36;9.87;;;3.70;;
68247;SDS011;55064;49.636;12.164;2023-07-22T08:30:01;7.88;;;3.60;;
68247;SDS011;55064;49.636;12.164;2023-07-22T08:32:39;7.93;;;4.00;;
68247;SDS011;55064;49.636;12.164;2023-07-22T08:35:10;7.70;;;3.80;;
68247;SDS011;55064;49.636;12.164;2023-07-22T08:37:36;9.07;;;4.22;;
68247;SDS011;55064;49.636;12.164;2023-07-22T08:40:02;8.33;;;4.23;;
68247;SDS011;55064;49.636;12.164;2023-07-22T08:42:28;9.07;;;4.57;;
68247;SDS011;55064;49.636;12.164;2023-07-22T08:44:56;10.20;;;4.70;;
68247;SDS011;55064;49.636;12.164;2023-07-22T08:47:26;9.40;;;4.32;;
68247;SDS011;55064;49.636;12.164;2023-07-22T08:49:54;8.40;;;4.15;;
68247;SDS011;55064;49.636;12.164;2023-07-22T08:55:08;8.63;;;4.50;;
68247;SDS011;55064;49.636;12.164;2023-07-22T08:57:36;8.95;;;3.75;;
68247;SDS011;55064;49.636;12.164;2023-07-22T09:03:13;10.32;;;4.03;;
68247;SDS011;55064;49.636;12.164;2023-07-22T09:05:39;8.00;;;4.00;;
68247;SDS011;55064;49.636;12.164;2023-07-22T09:08:06;9.85;;;4.18;;
68247;SDS011;55064;49.636;12.164;2023-07-22T09:10:33;7.88;;;3.80;;
68247;SDS011;55064;49.636;12.164;2023-07-22T09:13:01;12.32;;;4.20;;
68247;SDS011;55064;49.636;12.164;2023-07-22T09:15:29;7.90;;;3.97;;
68247;SDS011;55064;49.636;12.164;2023-07-22T09:17:59;8.03;;;3.90;;
68247;SDS011;55064;49.636;12.164;2023-07-22T09:20:24;8.23;;;3.37;;
68247;SDS011;55064;49.636;12.164;2023-07-22T09:22:51;7.55;;;3.50;;
68247;SDS011;55064;49.636;12.164;2023-07-22T09:27:46;8.37;;;3.90;;
68247;SDS011;55064;49.636;12.164;2023-07-22T09:30:26;7.30;;;3.70;;
68247;SDS011;55064;49.636;12.164;2023-07-22T09:32:53;7.47;;;3.42;;
68247;SDS011;55064;49.636;12.164;2023-07-22T09:35:25;8.43;;;3.80;;
68247;SDS011;55064;49.636;12.164;2023-07-22T09:38:09;7.55;;;3.30;;
68247;SDS011;55064;49.636;12.164;2023-07-22T09:40:35;6.93;;;3.00;;
68247;SDS011;55064;49.636;12.164;2023-07-22T09:43:01;8.05;;;3.38;;
68247;SDS011;55064;49.636;12.164;2023-07-22T09:45:29;6.53;;;3.10;;
68247;SDS011;55064;49.636;12.164;2023-07-22T09:47:55;8.40;;;3.20;;
68247;SDS011;55064;49.636;12.164;2023-07-22T09:50:25;7.63;;;3.35;;
68247;SDS011;55064;49.636;12.164;2023-07-22T09:52:55;7.18;;;3.08;;
68247;SDS011;55064;49.636;12.164;2023-07-22T09:55:24;7.43;;;3.40;;
68247;SDS011;55064;49.636;12.164;2023-07-22T09:58:11;8.63;;;3.50;;
68247;SDS011;55064;49.636;12.164;2023-07-22T10:00:39;7.65;;;3.10;;
68247;SDS011;55064;49.636;12.164;2023-07-22T10:03:08;6.60;;;3.03;;
68247;SDS011;55064;49.636;12.164;2023-07-22T10:05:37;9.70;;;3.30;;
68247;SDS011;55064;49.636;12.164;2023-07-22T10:08:04;6.60;;;3.13;;
68247;SDS011;55064;49.636;12.164;2023-07-22T10:10:34;6.20;;;2.90;;
68247;SDS011;55064;49.636;12.164;2023-07-22T10:13:03;8.45;;;2.90;;
68247;SDS011;55064;49.636;12.164;2023-07-22T10:15:29;6.75;;;3.03;;
68247;SDS011;55064;49.636;12.164;2023-07-22T10:17:56;7.03;;;3.35;;
68247;SDS011;55064;49.636;12.164;2023-07-22T10:20:22;8.33;;;3.40;;
68247;SDS011;55064;49.636;12.164;2023-07-22T10:22:51;7.38;;;3.25;;
68247;SDS011;55064;49.636;12.164;2023-07-22T10:25:20;7.55;;;3.38;;
68247;SDS011;55064;49.636;12.164;2023-07-22T10:27:47;6.40;;;3.25;;
68247;SDS011;55064;49.636;12.164;2023-07-22T10:30:14;5.78;;;2.58;;
68247;SDS011;55064;49.636;12.164;2023-07-22T10:32:41;7.73;;;3.23;;
68247;SDS011;55064;49.636;12.164;2023-07-22T10:35:12;7.07;;;3.03;;
68247;SDS011;55064;49.636;12.164;2023-07-22T10:37:44;8.07;;;2.83;;
68247;SDS011;55064;49.636;12.164;2023-07-22T10:45:28;6.60;;;2.80;;
68247;SDS011;55064;49.636;12.164;2023-07-22T10:47:59;6.65;;;2.83;;
68247;SDS011;55064;49.636;12.164;2023-07-22T10:50:49;7.35;;;2.75;;
68247;SDS011;55064;49.636;12.164;2023-07-22T10:53:20;6.13;;;3.13;;
68247;SDS011;55064;49.636;12.164;2023-07-22T11:06:35;5.95;;;3.00;;
68247;SDS011;55064;49.636;12.164;2023-07-22T11:09:01;6.20;;;2.83;;
68247;SDS011;55064;49.636;12.164;2023-07-22T11:11:39;6.13;;;2.53;;
68247;SDS011;55064;49.636;12.164;2023-07-22T11:14:17;5.63;;;2.47;;
68247;SDS011;55064;49.636;12.164;2023-07-22T11:16:48;6.35;;;2.60;;
68247;SDS011;55064;49.636;12.164;2023-07-22T11:19:14;6.07;;;2.60;;
68247;SDS011;55064;49.636;12.164;2023-07-22T11:21:41;5.70;;;2.60;;
68247;SDS011;55064;49.636;12.164;2023-07-22T11:24:07;8.70;;;2.70;;
68247;SDS011;55064;49.636;12.164;2023-07-22T11:26:33;6.20;;;2.78;;
68247;SDS011;55064;49.636;12.164;2023-07-22T11:29:02;6.28;;;2.60;;
68247;SDS011;55064;49.636;12.164;2023-07-22T11:31:36;6.67;;;2.70;;
68247;SDS011;55064;49.636;12.164;2023-07-22T11:34:03;6.82;;;2.88;;
68247;SDS011;55064;49.636;12.164;2023-07-22T11:36:29;5.53;;;2.40;;
68247;SDS011;55064;49.636;12.164;2023-07-22T11:39:01;5.40;;;2.60;;
68247;SDS011;55064;49.636;12.164;2023-07-22T11:41:27;5.38;;;2.42;;
68247;SDS011;55064;49.636;12.164;2023-07-22T11:43:53;5.75;;;2.40;;
68247;SDS011;55064;49.636;12.164;2023-07-22T11:46:24;5.80;;;2.67;;
68247;SDS011;55064;49.636;12.164;2023-07-22T11:48:51;8.35;;;2.88;;
68247;SDS011;55064;49.636;12.164;2023-07-22T11:51:18;7.03;;;2.73;;
68247;SDS011;55064;49.636;12.164;2023-07-22T11:53:47;5.28;;;2.30;;
68247;SDS011;55064;49.636;12.164;2023-07-22T11:56:18;6.57;;;2.40;;
68247;SDS011;55064;49.636;12.164;2023-07-22T11:58:51;5.95;;;2.63;;
68247;SDS011;55064;49.636;12.164;2023-07-22T12:01:18;6.18;;;2.70;;
68247;SDS011;55064;49.636;12.164;2023-07-22T12:03:44;5.90;;;2.77;;
68247;SDS011;55064;49.636;12.164;2023-07-22T12:06:09;6.38;;;2.40;;
68247;SDS011;55064;49.636;12.164;2023-07-22T12:08:45;6.57;;;2.38;;
68247;SDS011;55064;49.636;12.164;2023-07-22T12:11:15;6.20;;;2.40;;
68247;SDS011;55064;49.636;12.164;2023-07-22T12:13:42;5.57;;;2.50;;
68247;SDS011;55064;49.636;12.164;2023-07-22T12:16:11;7.55;;;2.53;;
68247;SDS011;55064;49.636;12.164;2023-07-22T12:18:41;6.15;;;2.80;;
68247;SDS011;55064;49.636;12.164;2023-07-22T12:21:07;5.55;;;2.30;;
68247;SDS011;55064;49.636;12.164;2023-07-22T12:23:34;6.13;;;2.45;;
68247;SDS011;55064;49.636;12.164;2023-07-22T12:26:03;6.77;;;2.53;;
68247;SDS011;55064;49.636;12.164;2023-07-22T12:32:46;6.32;;;2.50;;
68247;SDS011;55064;49.636;12.164;2023-07-22T12:36:15;5.45;;;2.25;;
68247;SDS011;55064;49.636;12.164;2023-07-22T12:39:59;5.95;;;2.15;;
68247;SDS011;55064;49.636;12.164;2023-07-22T12:43:24;6.30;;;2.77;;
68247;SDS011;55064;49.636;12.164;2023-07-22T12:45:58;6.60;;;2.50;;
68247;SDS011;55064;49.636;12.164;2023-07-22T12:48:38;5.35;;;2.42;;
68247;SDS011;55064;49.636;12.164;2023-07-22T12:51:06;5.20;;;2.50;;
68247;SDS011;55064;49.636;12.164;2023-07-22T12:53:34;6.22;;;2.67;;
68247;SDS011;55064;49.636;12.164;2023-07-22T12:55:59;7.67;;;2.73;;
68247;SDS011;55064;49.636;12.164;2023-07-22T12:58:27;5.35;;;2.70;;
68247;SDS011;55064;49.636;12.164;2023-07-22T13:00:55;7.93;;;2.55;;
68247;SDS011;55064;49.636;12.164;2023-07-22T13:03:20;6.10;;;2.67;;
68247;SDS011;55064;49.636;12.164;2023-07-22T13:05:45;6.93;;;2.90;;
68247;SDS011;55064;49.636;12.164;2023-07-22T13:08:11;5.55;;;2.63;;
68247;SDS011;55064;49.636;12.164;2023-07-22T13:10:36;5.13;;;2.77;;
68247;SDS011;55064;49.636;12.164;2023-07-22T13:13:04;8.15;;;2.95;;
68247;SDS011;55064;49.636;12.164;2023-07-22T13:15:30;5.20;;;2.57;;
68247;SDS011;55064;49.636;12.164;2023-07-22T13:17:58;7.30;;;2.90;;
68247;SDS011;55064;49.636;12.164;2023-07-22T13:20:23;6.40;;;2.88;;
68247;SDS011;55064;49.636;12.164;2023-07-22T13:26:20;5.00;;;2.60;;
68247;SDS011;55064;49.636;12.164;2023-07-22T13:28:45;5.82;;;3.00;;
68247;SDS011;55064;49.636;12.164;2023-07-22T13:31:13;6.57;;;2.90;;
68247;SDS011;55064;49.636;12.164;2023-07-22T13:33:41;6.43;;;2.58;;
68247;SDS011;55064;49.636;12.164;2023-07-22T13:36:07;6.13;;;2.90;;
68247;SDS011;55064;49.636;12.164;2023-07-22T13:38:34;6.65;;;2.40;;
68247;SDS011;55064;49.636;12.164;2023-07-22T13:40:59;6.00;;;2.57;;
68247;SDS011;55064;49.636;12.164;2023-07-22T13:43:25;5.67;;;2.43;;
68247;SDS011;55064;49.636;12.164;2023-07-22T13:45:52;6.43;;;2.60;;
68247;SDS011;55064;49.636;12.164;2023-07-22T13:48:37;6.90;;;2.70;;
68247;SDS011;55064;49.636;12.164;2023-07-22T13:51:05;6.03;;;2.60;;
68247;SDS011;55064;49.636;12.164;2023-07-22T13:53:30;7.65;;;3.03;;
68247;SDS011;55064;49.636;12.164;2023-07-22T13:56:00;6.57;;;2.60;;
68247;SDS011;55064;49.636;12.164;2023-07-22T13:58:28;5.10;;;2.60;;
68247;SDS011;55064;49.636;12.164;2023-07-22T14:00:56;5.85;;;2.75;;
68247;SDS011;55064;49.636;12.164;2023-07-22T14:03:21;6.43;;;2.80;;
68247;SDS011;55064;49.636;12.164;2023-07-22T14:05:49;6.13;;;2.60;;
68247;SDS011;55064;49.636;12.164;2023-07-22T14:08:16;5.90;;;2.40;;
68247;SDS011;55064;49.636;12.164;2023-07-22T14:10:42;6.22;;;2.63;;
68247;SDS011;55064;49.636;12.164;2023-07-22T14:13:07;7.57;;;2.63;;
68247;SDS011;55064;49.636;12.164;2023-07-22T14:15:34;5.87;;;2.70;;
68247;SDS011;55064;49.636;12.164;2023-07-22T14:17:59;6.73;;;2.80;;
68247;SDS011;55064;49.636;12.164;2023-07-22T14:20:27;6.23;;;2.97;;
68247;SDS011;55064;49.636;12.164;2023-07-22T14:22:55;5.90;;;2.87;;
68247;SDS011;55064;49.636;12.164;2023-07-22T14:25:25;5.80;;;2.70;;
68247;SDS011;55064;49.636;12.164;2023-07-22T14:27:50;5.30;;;2.65;;
68247;SDS011;55064;49.636;12.164;2023-07-22T14:30:19;6.18;;;2.70;;
68247;SDS011;55064;49.636;12.164;2023-07-22T14:32:47;5.73;;;2.63;;
68247;SDS011;55064;49.636;12.164;2023-07-22T14:35:14;5.63;;;2.50;;
68247;SDS011;55064;49.636;12.164;2023-07-22T14:37:40;6.40;;;2.50;;
68247;SDS011;55064;49.636;12.164;2023-07-22T14:40:05;5.67;;;2.60;;
68247;SDS011;55064;49.636;12.164;2023-07-22T14:42:33;9.10;;;2.85;;
68247;SDS011;55064;49.636;12.164;2023-07-22T14:44:59;5.50;;;2.50;;
68247;SDS011;55064;49.636;12.164;2023-07-22T14:47:24;5.87;;;2.53;;
68247;SDS011;55064;49.636;12.164;2023-07-22T14:49:51;4.93;;;2.63;;
68247;SDS011;55064;49.636;12.164;2023-07-22T14:52:16;5.57;;;2.50;;
68247;SDS011;55064;49.636;12.164;2023-07-22T14:54:44;6.28;;;2.42;;
68247;SDS011;55064;49.636;12.164;2023-07-22T14:57:10;6.40;;;2.40;;
68247;SDS011;55064;49.636;12.164;2023-07-22T14:59:36;5.93;;;2.73;;
68247;SDS011;55064;49.636;12.164;2023-07-22T15:02:01;5.87;;;2.60;;
68247;SDS011;55064;49.636;12.164;2023-07-22T15:04:26;6.57;;;2.50;;
68247;SDS011;55064;49.636;12.164;2023-07-22T15:06:52;7.80;;;2.90;;
68247;SDS011;55064;49.636;12.164;2023-07-22T15:09:17;5.17;;;2.50;;
68247;SDS011;55064;49.636;12.164;2023-07-22T15:11:45;6.20;;;2.65;;
68247;SDS011;55064;49.636;12.164;2023-07-22T15:14:11;9.55;;;3.00;;
68247;SDS011;55064;49.636;12.164;2023-07-22T15:16:36;5.57;;;2.70;;
68247;SDS011;55064;49.636;12.164;2023-07-22T15:19:05;6.68;;;2.38;;
68247;SDS011;55064;49.636;12.164;2023-07-22T15:21:31;5.13;;;2.50;;
68247;SDS011;55064;49.636;12.164;2023-07-22T15:23:58;6.25;;;2.72;;
68247;SDS011;55064;49.636;12.164;2023-07-22T15:26:25;6.07;;;2.40;;
68247;SDS011;55064;49.636;12.164;2023-07-22T15:28:51;5.22;;;2.58;;
68247;SDS011;55064;49.636;12.164;2023-07-22T15:31:17;5.87;;;2.50;;
68247;SDS011;55064;49.636;12.164;2023-07-22T15:33:48;5.25;;;2.30;;
68247;SDS011;55064;49.636;12.164;2023-07-22T15:36:14;6.13;;;2.90;;
68247;SDS011;55064;49.636;12.164;2023-07-22T15:38:40;5.50;;;2.37;;
68247;SDS011;55064;49.636;12.164;2023-07-22T15:41:06;5.75;;;2.63;;
68247;SDS011;55064;49.636;12.164;2023-07-22T15:43:31;5.77;;;2.40;;
68247;SDS011;55064;49.636;12.164;2023-07-22T15:45:57;5.45;;;2.50;;
68247;SDS011;55064;49.636;12.164;2023-07-22T15:48:23;5.63;;;2.53;;
68247;SDS011;55064;49.636;12.164;2023-07-22T15:50:49;7.93;;;2.60;;
68247;SDS011;55064;49.636;12.164;2023-07-22T15:53:15;6.43;;;2.60;;
68247;SDS011;55064;49.636;12.164;2023-07-22T15:55:47;5.18;;;2.50;;
68247;SDS011;55064;49.636;12.164;2023-07-22T15:58:18;6.20;;;2.72;;
68247;SDS011;55064;49.636;12.164;2023-07-22T16:00:44;5.75;;;2.40;;
68247;SDS011;55064;49.636;12.164;2023-07-22T16:03:12;5.80;;;2.57;;
68247;SDS011;55064;49.636;12.164;2023-07-22T16:05:39;6.00;;;2.38;;
68247;SDS011;55064;49.636;12.164;2023-07-22T16:08:07;5.75;;;2.47;;
68247;SDS011;55064;49.636;12.164;2023-07-22T16:10:33;6.40;;;2.40;;
68247;SDS011;55064;49.636;12.164;2023-07-22T16:12:58;6.07;;;2.60;;
68247;SDS011;55064;49.636;12.164;2023-07-22T16:15:27;5.57;;;2.40;;
68247;SDS011;55064;49.636;12.164;2023-07-22T16:17:52;6.07;;;3.00;;
68247;SDS011;55064;49.636;12.164;2023-07-22T16:20:19;7.20;;;2.70;;
68247;SDS011;55064;49.636;12.164;2023-07-22T16:22:47;6.20;;;2.97;;
68247;SDS011;55064;49.636;12.164;2023-07-22T16:25:13;5.73;;;2.20;;
68247;SDS011;55064;49.636;12.164;2023-07-22T16:27:38;7.88;;;2.35;;
68247;SDS011;55064;49.636;12.164;2023-07-22T16:30:04;6.03;;;2.30;;
68247;SDS011;55064;49.636;12.164;2023-07-22T16:32:30;7.28;;;2.50;;
68247;SDS011;55064;49.636;12.164;2023-07-22T16:34:56;5.40;;;2.30;;
68247;SDS011;55064;49.636;12.164;2023-07-22T16:37:21;6.63;;;2.50;;
68247;SDS011;55064;49.636;12.164;2023-07-22T16:39:48;5.80;;;2.20;;
68247;SDS011;55064;49.636;12.164;2023-07-22T16:42:13;5.53;;;2.30;;
68247;SDS011;55064;49.636;12.164;2023-07-22T16:44:39;5.23;;;1.87;;
68247;SDS011;55064;49.636;12.164;2023-07-22T16:47:04;4.70;;;1.80;;
68247;SDS011;55064;49.636;12.164;2023-07-22T16:49:32;5.82;;;2.55;;
68247;SDS011;55064;49.636;12.164;2023-07-22T16:51:57;6.97;;;2.77;;
68247;SDS011;55064;49.636;12.164;2023-07-22T16:54:27;7.97;;;2.60;;
68247;SDS011;55064;49.636;12.164;2023-07-22T16:56:53;6.35;;;2.47;;
68247;SDS011;55064;49.636;12.164;2023-07-22T16:59:18;7.60;;;2.50;;
68247;SDS011;55064;49.636;12.164;2023-07-22T17:01:43;4.93;;;2.13;;
68247;SDS011;55064;49.636;12.164;2023-07-22T17:04:22;5.87;;;2.63;;
68247;SDS011;55064;49.636;12.164;2023-07-22T17:06:51;6.05;;;2.20;;
68247;SDS011;55064;49.636;12.164;2023-07-22T17:09:19;5.03;;;2.22;;
68247;SDS011;55064;49.636;12.164;2023-07-22T17:11:45;5.78;;;2.22;;
68247;SDS011;55064;49.636;12.164;2023-07-22T17:14:13;9.23;;;2.77;;
68247;SDS011;55064;49.636;12.164;2023-07-22T17:16:38;5.00;;;2.00;;
68247;SDS011;55064;49.636;12.164;2023-07-22T17:19:06;5.47;;;2.17;;
68247;SDS011;55064;49.636;12.164;2023-07-22T17:21:35;5.57;;;2.08;;
68247;SDS011;55064;49.636;12.164;2023-07-22T17:24:03;5.33;;;2.50;;
68247;SDS011;55064;49.636;12.164;2023-07-22T17:26:28;6.22;;;2.20;;
68247;SDS011;55064;49.636;12.164;2023-07-22T17:28:54;5.17;;;2.20;;
68247;SDS011;55064;49.636;12.164;2023-07-22T17:31:19;6.47;;;2.20;;
68247;SDS011;55064;49.636;12.164;2023-07-22T17:33:44;6.83;;;2.40;;
68247;SDS011;55064;49.636;12.164;2023-07-22T17:36:12;6.03;;;2.08;;
68247;SDS011;55064;49.636;12.164;2023-07-22T17:38:40;6.70;;;2.40;;
68247;SDS011;55064;49.636;12.164;2023-07-22T17:41:05;5.30;;;2.00;;
68247;SDS011;55064;49.636;12.164;2023-07-22T17:43:30;5.57;;;2.20;;
68247;SDS011;55064;49.636;12.164;2023-07-22T17:45:58;5.93;;;2.05;;
68247;SDS011;55064;49.636;12.164;2023-07-22T17:48:26;6.07;;;2.20;;
68247;SDS011;55064;49.636;12.164;2023-07-22T17:50:51;8.43;;;2.50;;
68247;SDS011;55064;49.636;12.164;2023-07-22T17:53:16;6.63;;;1.97;;
68247;SDS011;55064;49.636;12.164;2023-07-22T17:55:42;5.43;;;2.30;;
68247;SDS011;55064;49.636;12.164;2023-07-22T17:58:07;5.20;;;2.27;;
68247;SDS011;55064;49.636;12.164;2023-07-22T18:00:32;5.17;;;2.20;;
68247;SDS011;55064;49.636;12.164;2023-07-22T18:03:00;6.35;;;2.35;;
68247;SDS011;55064;49.636;12.164;2023-07-22T18:05:25;8.27;;;2.67;;
68247;SDS011;55064;49.636;12.164;2023-07-22T18:07:52;5.72;;;2.13;;
68247;SDS011;55064;49.636;12.164;2023-07-22T18:10:17;4.88;;;1.83;;
68247;SDS011;55064;49.636;12.164;2023-07-22T18:12:44;4.87;;;2.20;;
68247;SDS011;55064;49.636;12.164;2023-07-22T18:15:09;6.68;;;2.20;;
68247;SDS011;55064;49.636;12.164;2023-07-22T18:17:37;5.50;;;2.20;;
68247;SDS011;55064;49.636;12.164;2023-07-22T18:20:02;5.60;;;2.20;;
68247;SDS011;55064;49.636;12.164;2023-07-22T18:22:31;4.67;;;2.00;;
68247;SDS011;55064;49.636;12.164;2023-07-22T18:24:57;5.75;;;2.13;;
68247;SDS011;55064;49.636;12.164;2023-07-22T18:27:25;5.75;;;2.00;;
68247;SDS011;55064;49.636;12.164;2023-07-22T18:29:50;7.10;;;2.50;;
68247;SDS011;55064;49.636;12.164;2023-07-22T18:32:16;5.30;;;2.50;;
68247;SDS011;55064;49.636;12.164;2023-07-22T18:34:41;7.53;;;2.60;;
68247;SDS011;55064;49.636;12.164;2023-07-22T18:37:09;5.43;;;2.35;;
68247;SDS011;55064;49.636;12.164;2023-07-22T18:39:38;5.35;;;2.30;;
68247;SDS011;55064;49.636;12.164;2023-07-22T18:42:05;5.70;;;2.27;;
68247;SDS011;55064;49.636;12.164;2023-07-22T18:44:32;6.65;;;2.30;;
68247;SDS011;55064;49.636;12.164;2023-07-22T18:47:00;6.20;;;2.60;;
68247;SDS011;55064;49.636;12.164;2023-07-22T18:49:25;6.17;;;2.63;;
68247;SDS011;55064;49.636;12.164;2023-07-22T18:51:50;8.80;;;2.20;;
68247;SDS011;55064;49.636;12.164;2023-07-22T18:54:17;5.63;;;2.45;;
68247;SDS011;55064;49.636;12.164;2023-07-22T18:56:42;7.03;;;2.67;;
68247;SDS011;55064;49.636;12.164;2023-07-22T18:59:07;6.53;;;2.73;;
68247;SDS011;55064;49.636;12.164;2023-07-22T19:01:33;6.33;;;3.00;;
68247;SDS011;55064;49.636;12.164;2023-07-22T19:03:58;7.40;;;3.60;;
68247;SDS011;55064;49.636;12.164;2023-07-22T19:06:23;9.10;;;4.73;;
68247;SDS011;55064;49.636;12.164;2023-07-22T19:08:49;9.30;;;4.97;;
68247;SDS011;55064;49.636;12.164;2023-07-22T19:11:16;6.80;;;3.15;;
68247;SDS011;55064;49.636;12.164;2023-07-22T19:13:44;6.65;;;2.80;;
68247;SDS011;55064;49.636;12.164;2023-07-22T19:16:09;6.57;;;2.97;;
68247;SDS011;55064;49.636;12.164;2023-07-22T19:18:35;6.30;;;2.43;;
68247;SDS011;55064;49.636;12.164;2023-07-22T19:21:00;6.13;;;2.60;;
68247;SDS011;55064;49.636;12.164;2023-07-22T19:23:28;6.17;;;2.40;;
68247;SDS011;55064;49.636;12.164;2023-07-22T19:25:57;6.13;;;2.10;;
68247;SDS011;55064;49.636;12.164;2023-07-22T19:28:23;5.78;;;2.40;;
68247;SDS011;55064;49.636;12.164;2023-07-22T19:30:52;7.73;;;2.70;;
68247;SDS011;55064;49.636;12.164;2023-07-22T19:33:22;6.87;;;2.70;;
68247;SDS011;55064;49.636;12.164;2023-07-22T19:38:32;6.72;;;2.15;;
68247;SDS011;55064;49.636;12.164;2023-07-22T19:41:02;6.20;;;2.38;;
68247;SDS011;55064;49.636;12.164;2023-07-22T19:43:28;6.43;;;2.70;;
68247;SDS011;55064;49.636;12.164;2023-07-22T19:46:03;5.93;;;2.43;;
68247;SDS011;55064;49.636;12.164;2023-07-22T19:48:30;5.75;;;2.38;;
68247;SDS011;55064;49.636;12.164;2023-07-22T19:50:59;7.40;;;2.40;;
68247;SDS011;55064;49.636;12.164;2023-07-22T19:53:32;7.70;;;2.63;;
68247;SDS011;55064;49.636;12.164;2023-07-22T19:56:01;6.95;;;2.30;;
68247;SDS011;55064;49.636;12.164;2023-07-22T19:58:28;6.20;;;2.60;;
68247;SDS011;55064;49.636;12.164;2023-07-22T20:00:56;6.03;;;2.78;;